Latest Weather Observations for Sheoaks

IDV60801

Issued at 6:31 pm EST Monday 3 August 2015 (issued every 30 minutes, with the page automatically refreshed every 10 minutes)

About weather observations | Map of weather stations | Latest weather observations for VIC | Other Formats
Station Details ID: 087168 Name: SHEOAKS Lat: -37.91 Lon: 144.13 Height: 236.7 m
Data from the previous 72 hours. | See also: Recent months at Sheoaks
Date/Time
EST
Temp
°C
App
Temp
°C
Dew
Point
Rel
Hum
%
Delta-T
°C
Wind Press
QNH
hPa
Press
MSL
hPa
Rain
since 9 am
mm
Dir
 
Spd
km/h
Gust
km/h
Spd
kts
Gust
kts
03/06:30pm 4.5 0.9 0.6 76 1.5 W 9 13 5 7 1022.5 1022.8 0.0
03/06:00pm 5.0 1.5 1.3 77 1.5 W 9 11 5 6 1022.3 1022.6 0.0
03/05:30pm 5.3 1.5 1.8 78 1.4 SW 11 15 6 8 1022.0 1022.3 0.0
03/05:00pm 6.8 2.1 0.7 65 2.4 SW 15 32 8 17 1021.5 1021.8 0.0
03/04:30pm 7.3 2.7 -0.9 56 3.2 SW 13 22 7 12 1020.9 1021.2 0.0
03/04:00pm 6.6 1.5 0.7 66 2.4 SSW 17 22 9 12 1020.9 1021.2 0.0
03/03:30pm 7.7 2.4 -0.8 55 3.3 SW 17 28 9 15 1020.6 1020.9 0.0
03/03:00pm 7.4 2.2 0.4 61 2.8 SW 17 30 9 16 1020.2 1020.6 0.0
03/02:30pm 6.0 -0.3 1.7 74 1.8 SW 24 41 13 22 1019.9 1020.3 0.0
03/02:00pm 8.6 2.8 0.1 55 3.4 WSW 20 35 11 19 1019.4 1019.7 0.0
03/01:30pm 8.2 1.6 -0.3 55 3.4 SW 24 44 13 24 1019.5 1019.8 0.0
03/01:00pm 8.2 2.5 -0.5 54 3.4 WSW 19 39 10 21 1019.3 1019.6 0.0
03/12:30pm 6.8 -0.5 -0.2 61 2.7 SW 28 48 15 26 1019.4 1019.7 0.0
03/12:28pm 6.8 -0.6 -0.4 60 2.8 SW 28 48 15 26 1019.4 1019.7 0.0
03/12:00pm 7.2 1.6 1.3 66 2.4 WSW 20 35 11 19 1019.3 1019.6 0.0
03/11:30am 6.6 0.1 0.5 65 2.4 WSW 24 41 13 22 1019.3 1019.6 0.0
03/11:00am 6.6 0.5 0.5 65 2.4 SW 22 44 12 24 1019.0 1019.3 0.0
03/10:30am 6.6 1.5 0.9 67 2.3 WSW 17 32 9 17 1018.4 1018.7 0.0
03/10:00am 6.4 1.1 1.7 72 1.9 WSW 19 37 10 20 1017.8 1018.1 0.0
03/09:30am 5.8 0.1 2.8 81 1.3 WSW 22 32 12 17 1017.5 1017.8 0.0
03/09:00am 5.1 -0.2 3.1 87 0.8 W 20 32 11 17 1016.9 1017.2 4.0
03/08:30am 4.5 -0.8 2.8 89 0.7 W 20 30 11 16 1016.3 1016.6 4.0
03/08:00am 4.7 -0.3 3.7 93 0.4 W 19 33 10 18 1015.7 1016.0 4.0
03/07:30am 4.8 -0.7 3.8 93 0.4 W 22 35 12 19 1015.0 1015.3 3.6
03/07:00am 5.2 -1.1 3.5 89 0.7 W 26 39 14 21 1014.2 1014.5 3.2
03/06:30am 5.5 -0.9 3.3 86 0.9 W 26 39 14 21 1013.6 1013.9 3.0
03/06:00am 5.7 0.1 3.7 87 0.9 W 22 41 12 22 1013.3 1013.6 3.0
03/05:40am 6.0 -0.6 4.2 88 0.8 W 28 48 15 26 1012.7 1013.0 3.0
03/05:30am 6.0 -1.0 4.3 89 0.7 W 30 44 16 24 1012.6 1012.8 3.0
03/05:00am 6.4 -1.5 4.6 88 0.8 W 35 57 19 31 1011.9 1012.1 2.8
03/04:43am 6.5 -0.4 4.7 88 0.8 W 30 50 16 27 1011.4 1011.7 2.2
03/04:30am 6.7 -0.8 4.2 84 1.1 W 33 48 18 26 1011.2 1011.5 2.0
03/04:09am 6.8 -0.5 4.6 86 1.0 W 32 54 17 29 1011.1 1011.4 2.0
03/04:00am 7.0 -0.3 4.7 85 1.0 W 32 50 17 27 1011.0 1011.3 2.0
03/03:30am 7.1 -1.6 4.2 82 1.3 W 39 59 21 32 1010.6 1010.9 2.0
03/03:04am 7.0 -0.9 4.3 83 1.2 WNW 35 56 19 30 1010.7 1011.0 2.0
03/03:00am 7.1 -0.4 4.4 83 1.2 WNW 33 50 18 27 1010.7 1011.0 2.0
03/02:30am 7.4 -0.5 4.2 80 1.4 WNW 35 54 19 29 1010.8 1011.1 2.0
03/02:00am 7.5 -0.9 3.7 77 1.7 WNW 37 67 20 36 1010.6 1010.9 2.0
03/01:30am 7.6 -0.8 3.8 77 1.7 WNW 37 57 20 31 1010.5 1010.8 2.0
03/01:00am 7.7 -1.1 3.7 76 1.7 WNW 39 65 21 35 1010.3 1010.6 2.0
03/12:30am 7.8 -1.0 3.7 75 1.8 WNW 39 65 21 35 1010.5 1010.8 2.0
03/12:09am 7.8 -0.2 3.7 75 1.8 WNW 35 61 19 33 1010.6 1010.9 2.0
03/12:00am 7.8 -0.6 3.7 75 1.8 WNW 37 54 20 29 1010.5 1010.8 2.0
 
Date/Time
EST
Temp
°C
App
Temp
°C
Dew
Point
Rel
Hum
%
Delta-T
°C
Wind Press
QNH
hPa
Press
MSL
hPa
Rain
since 9 am
mm
Dir
 
Spd
km/h
Gust
km/h
Spd
kts
Gust
kts
02/11:30pm 7.7 0.0 3.6 75 1.8 WNW 33 56 18 30 1010.8 1011.1 2.0
02/11:00pm 7.7 0.2 3.6 75 1.8 WNW 32 57 17 31 1010.7 1011.0 2.0
02/10:30pm 7.7 0.0 3.6 75 1.8 WNW 33 56 18 30 1010.9 1011.2 2.0
02/10:06pm 7.6 -0.1 3.5 75 1.8 WNW 33 54 18 29 1010.9 1011.2 2.0
02/10:00pm 7.6 -0.5 3.5 75 1.8 WNW 35 54 19 29 1010.9 1011.2 2.0
02/09:30pm 7.8 0.2 3.7 75 1.8 WNW 33 54 18 29 1010.9 1011.2 2.0
02/09:00pm 7.7 -0.2 4.3 79 1.5 WNW 35 59 19 32 1011.1 1011.4 2.0
02/08:31pm 8.0 0.6 4.9 81 1.4 WNW 33 54 18 29 1010.6 1010.9 2.0
02/08:30pm 8.0 0.6 4.9 81 1.4 WNW 33 50 18 27 1010.7 1011.0 2.0
02/08:19pm 7.9 1.1 5.0 82 1.3 WNW 30 48 16 26 1010.7 1011.0 2.0
02/08:00pm 7.8 1.4 5.1 83 1.2 WNW 28 44 15 24 1011.0 1011.3 2.0
02/07:38pm 7.7 1.3 5.2 84 1.1 WNW 28 48 15 26 1010.8 1011.1 2.0
02/07:30pm 7.6 1.2 5.2 85 1.1 WNW 28 43 15 23 1010.7 1011.0 2.0
02/07:11pm 7.7 1.4 5.5 86 1.0 W 28 46 15 25 1010.7 1011.0 2.0
02/07:00pm 7.8 0.7 5.4 85 1.1 W 32 46 17 25 1010.7 1011.0 2.0
02/06:30pm 7.8 1.1 5.8 87 0.9 W 30 50 16 27 1010.5 1010.8 2.0
02/06:27pm 7.8 1.2 5.9 88 0.9 W 30 48 16 26 1010.5 1010.8 2.0
02/06:00pm 7.9 1.3 6.0 88 0.9 WNW 30 48 16 26 1010.1 1010.4 1.8
02/05:55pm 7.9 1.7 6.0 88 0.9 WNW 28 48 15 26 1010.0 1010.3 1.8
02/05:30pm 7.5 1.4 6.4 93 0.5 W 28 43 15 23 1009.8 1010.1 1.8
02/05:06pm 7.8 1.6 6.3 90 0.7 W 28 46 15 25 1009.8 1010.1 1.2
02/05:00pm 8.7 2.8 7.3 91 0.7 W 28 44 15 24 1009.7 1010.0 1.2
02/04:30pm 8.7 2.8 7.3 91 0.7 W 28 50 15 27 1009.7 1010.0 0.8
02/04:00pm 11.6 4.1 4.3 61 3.3 WNW 33 56 18 30 1009.1 1009.3 0.0
02/03:30pm 12.2 3.9 4.2 58 3.7 WNW 37 72 20 39 1008.4 1008.6 0.0
02/03:00pm 11.5 3.7 4.7 63 3.1 WNW 35 56 19 30 1008.4 1008.6 0.0
02/02:30pm 11.4 4.1 4.4 62 3.2 WNW 32 54 17 29 1008.5 1008.7 0.0
02/02:00pm 11.6 3.2 3.6 58 3.6 WNW 37 61 20 33 1008.5 1008.7 0.0
02/01:30pm 11.2 2.8 3.5 59 3.4 WNW 37 65 20 35 1008.9 1009.1 0.0
02/01:05pm 11.3 3.3 3.6 59 3.5 WNW 35 67 19 36 1008.9 1009.1 0.0
02/01:00pm 11.4 3.4 3.7 59 3.5 WNW 35 54 19 29 1009.0 1009.2 0.0
02/12:30pm 11.0 3.4 3.8 61 3.2 WNW 33 57 18 31 1009.5 1009.8 0.0
02/12:07pm 10.3 2.6 3.3 62 3.1 WNW 33 54 18 29 1009.9 1010.2 0.0
02/12:00pm 10.4 2.7 3.4 62 3.1 WNW 33 52 18 28 1010.1 1010.4 0.0
02/11:30am 10.1 2.3 2.9 61 3.1 WNW 33 54 18 29 1010.7 1011.0 0.0
02/11:00am 9.7 2.8 2.8 62 3.0 WNW 28 48 15 26 1011.1 1011.4 0.0
02/10:39am 9.4 2.6 2.9 64 2.8 WNW 28 46 15 25 1011.4 1011.7 0.0
02/10:30am 9.3 3.3 3.1 65 2.7 NW 24 37 13 20 1011.7 1011.9 0.0
02/10:00am 8.3 2.9 2.5 67 2.5 NW 20 35 11 19 1011.8 1012.0 0.0
02/09:30am 7.4 1.6 2.1 69 2.2 NW 22 33 12 18 1012.0 1012.2 0.0
02/09:00am 6.8 1.3 1.9 71 2.0 NW 20 32 11 17 1012.0 1012.2 0.0
02/08:30am 6.0 1.4 1.5 73 1.8 NW 15 24 8 13 1012.1 1012.3 0.0
02/08:00am 5.6 0.6 1.3 74 1.7 NW 17 28 9 15 1012.1 1012.3 0.0
02/07:30am 5.4 0.4 1.3 75 1.6 NW 17 30 9 16 1012.2 1012.4 0.0
02/07:00am 5.4 0.0 1.0 73 1.8 NW 19 28 10 15 1012.3 1012.5 0.0
02/06:30am 5.4 0.3 1.0 73 1.8 NW 17 24 9 13 1012.4 1012.6 0.0
02/06:00am 5.3 0.3 1.1 74 1.7 NW 17 22 9 12 1012.4 1012.6 0.0
02/05:30am 5.2 0.9 1.0 74 1.7 NW 13 22 7 12 1012.5 1012.7 0.0
02/05:00am 5.3 1.0 1.1 74 1.7 NW 13 20 7 11 1012.6 1012.8 0.0
02/04:30am 5.4 1.1 1.0 73 1.8 NW 13 20 7 11 1012.6 1012.8 0.0
02/04:00am 5.4 1.1 1.1 74 1.7 NW 13 19 7 10 1012.8 1013.1 0.0
02/03:30am 5.7 1.4 1.2 73 1.8 NW 13 20 7 11 1013.3 1013.6 0.0
02/03:00am 5.8 1.5 1.2 72 1.8 NW 13 22 7 12 1013.8 1014.1 0.0
02/02:30am 5.8 1.9 1.3 73 1.8 NW 11 17 6 9 1014.2 1014.5 0.0
02/02:00am 5.7 1.8 1.4 74 1.7 NW 11 15 6 8 1014.3 1014.6 0.0
02/01:30am 5.8 2.3 1.5 74 1.7 NW 9 15 5 8 1014.4 1014.7 0.0
02/01:00am 5.7 2.3 1.6 75 1.7 NW 9 11 5 6 1014.9 1015.2 0.0
02/12:30am 5.7 2.3 1.6 75 1.7 NNW 9 11 5 6 1015.1 1015.4 0.0
02/12:00am 5.8 2.8 1.7 75 1.7 NW 7 11 4 6 1015.4 1015.7 0.0
 
Date/Time
EST
Temp
°C
App
Temp
°C
Dew
Point
Rel
Hum
%
Delta-T
°C
Wind Press
QNH
hPa
Press
MSL
hPa
Rain
since 9 am
mm
Dir
 
Spd
km/h
Gust
km/h
Spd
kts
Gust
kts
01/11:30pm 5.5 2.1 1.6 76 1.6 NNW 9 13 5 7 1015.8 1016.1 0.0
01/11:00pm 5.6 2.5 1.5 75 1.7 NNW 7 11 4 6 1015.6 1015.9 0.0
01/10:30pm 5.3 2.2 1.4 76 1.6 NNW 7 11 4 6 1015.7 1016.0 0.0
01/10:00pm 5.8 2.7 1.3 73 1.8 NNW 7 11 4 6 1015.5 1015.8 0.0
01/09:30pm 5.8 2.3 1.3 73 1.8 NNW 9 13 5 7 1016.1 1016.3 0.0
01/09:00pm 5.0 2.0 1.7 79 1.3 N 7 9 4 5 1016.0 1016.2 0.0
01/08:30pm 5.4 2.4 1.7 77 1.5 NW 7 9 4 5 1015.6 1015.9 0.0
01/08:00pm 6.0 3.1 1.7 74 1.8 NW 6 7 3 4 1015.4 1015.7 0.0
01/07:30pm 6.4 3.6 1.9 73 1.8 NW 6 7 3 4 1015.4 1015.7 0.0
01/07:00pm 6.8 3.8 2.1 72 1.9 NW 7 9 4 5 1015.6 1015.9 0.0
01/06:30pm 7.1 4.1 2.0 70 2.1 NW 7 9 4 5 1015.5 1015.8 0.0
01/06:00pm 7.3 4.3 1.8 68 2.3 NW 7 11 4 6 1015.1 1015.4 0.0
01/05:30pm 7.9 4.4 1.3 63 2.7 WNW 9 13 5 7 1015.1 1015.4 0.0
01/05:00pm 8.2 5.0 0.9 60 3.0 WNW 7 11 4 6 1014.7 1015.0 0.0
01/04:30pm 8.5 4.9 0.5 57 3.2 W 9 13 5 7 1014.3 1014.6 0.0
01/04:00pm 8.9 4.9 0.4 55 3.5 W 11 17 6 9 1014.2 1014.5 0.0
01/03:30pm 9.1 5.2 1.0 57 3.3 W 11 19 6 10 1014.4 1014.7 0.0
01/03:00pm 9.3 5.2 0.0 52 3.8 W 11 20 6 11 1014.2 1014.5 0.0
01/02:30pm 9.2 5.2 0.6 55 3.5 WSW 11 17 6 9 1013.9 1014.2 0.0
01/02:00pm 9.1 5.6 1.3 58 3.2 WSW 9 17 5 9 1013.8 1014.1 0.0
01/01:30pm 9.0 4.8 1.7 60 3.1 WSW 13 24 7 13 1013.9 1014.2 0.0
01/01:00pm 9.1 5.5 2.7 64 2.8 SW 11 20 6 11 1014.0 1014.3 0.0
01/12:30pm 8.8 5.1 2.2 63 2.8 WSW 11 20 6 11 1014.1 1014.4 0.0
01/12:00pm 8.7 4.4 3.3 69 2.3 SW 15 24 8 13 1014.1 1014.4 0.0
01/11:30am 8.7 5.0 4.7 76 1.8 WSW 13 24 7 13 1014.5 1014.8 0.0
01/11:00am 8.7 4.8 5.4 80 1.5 W 15 24 8 13 1014.2 1014.5 0.0
01/10:30am 8.5 4.7 5.8 83 1.2 W 15 22 8 12 1014.1 1014.4 0.0
01/10:00am 8.2 3.5 5.3 82 1.3 W 19 28 10 15 1013.6 1013.9 0.0
01/09:30am 7.5 4.5 6.0 90 0.7 WNW 11 17 6 9 1013.0 1013.3 0.0
01/09:00am 7.4 3.7 6.3 93 0.5 W 15 22 8 12 1012.5 1012.8 1.4
01/08:30am 7.3 3.2 6.4 94 0.4 WSW 17 32 9 17 1012.2 1012.5 1.4
01/08:00am 7.4 3.0 6.5 94 0.4 WSW 19 33 10 18 1011.4 1011.8 1.4
01/07:30am 7.7 2.4 6.8 94 0.4 W 24 39 13 21 1010.6 1011.0 1.4
01/07:00am 9.3 4.6 7.6 89 0.8 WNW 22 37 12 20 1009.3 1009.6 0.6
01/06:30am 9.2 4.8 7.6 90 0.8 NW 20 33 11 18 1008.3 1008.6 0.4
01/06:00am 9.6 3.9 6.7 82 1.4 NNW 26 46 14 25 1007.3 1007.6 0.0
01/05:30am 9.9 3.7 6.3 78 1.7 NNW 28 48 15 26 1006.7 1007.1 0.0
01/05:04am 11.1 4.0 5.4 68 2.7 NNW 32 52 17 28 1006.8 1007.2 0.0
01/05:00am 11.3 3.6 5.4 67 2.8 NNW 35 52 19 28 1006.9 1007.3 0.0
01/04:30am 11.6 5.3 5.5 66 2.9 NNW 28 48 15 26 1006.7 1007.1 0.0
01/04:00am 11.7 4.0 5.3 65 3.0 NNW 35 57 19 31 1006.5 1006.8 0.0
01/03:30am 11.4 3.2 4.8 64 3.0 NNW 37 59 20 32 1006.8 1007.2 0.0
01/03:00am 10.8 2.2 4.5 65 2.9 NNW 39 61 21 33 1007.0 1007.4 0.0
01/02:30am 10.6 2.2 3.6 62 3.1 NNW 37 61 20 33 1007.6 1007.9 0.0
01/02:00am 10.3 1.8 3.3 62 3.1 NNW 37 61 20 33 1007.8 1008.1 0.0
01/01:30am 10.2 1.7 3.3 62 3.0 NNW 37 57 20 31 1008.2 1008.5 0.0
01/01:00am 9.8 0.9 3.1 63 2.9 NNW 39 61 21 33 1008.9 1009.2 0.0
01/12:31am 9.5 1.7 2.6 62 3.0 NNW 33 59 18 32 1009.3 1009.6 0.0
01/12:30am 9.5 1.7 2.6 62 3.0 NNW 33 50 18 27 1009.4 1009.7 0.0
01/12:06am 9.3 2.4 2.4 62 3.0 NNW 28 48 15 26 1010.2 1010.6 0.0
01/12:00am 9.3 3.5 2.4 62 3.0 NNW 22 37 12 20 1010.6 1011.0 0.0
 
Date/Time
EST
Temp
°C
App
Temp
°C
Dew
Point
Rel
Hum
%
Delta-T
°C
Wind Press
QNH
hPa
Press
MSL
hPa
Rain
since 9 am
mm
Dir
 
Spd
km/h
Gust
km/h
Spd
kts
Gust
kts
31/11:30pm 8.8 2.9 1.9 62 2.9 NNW 22 41 12 22 1011.3 1011.7 0.0
31/11:00pm 8.7 3.2 1.6 61 3.0 NNW 20 35 11 19 1012.3 1012.6 0.0
31/10:30pm 8.6 3.0 1.5 61 3.0 NNW 20 41 11 22 1012.8 1013.1 0.0
31/10:00pm 8.4 3.1 1.8 63 2.8 NNW 19 37 10 20 1013.0 1013.3 0.0
31/09:30pm 8.2 1.9 1.8 64 2.7 NNW 24 39 13 21 1013.4 1013.7 0.0
31/09:00pm 8.1 2.6 1.9 65 2.6 NNW 20 30 11 16 1013.9 1014.3 0.0
31/08:30pm 8.1 3.6 2.1 66 2.5 NW 15 26 8 14 1014.7 1015.1 0.0
31/08:00pm 8.1 4.0 2.1 66 2.5 NW 13 24 7 13 1014.8 1015.2 0.0
31/07:30pm 7.9 4.6 2.2 67 2.4 NNW 9 17 5 9 1014.5 1014.9 0.0
31/07:00pm 7.7 4.0 2.2 68 2.3 N 11 17 6 9 1014.4 1014.8 0.0

Other Formats:

Comma delimited format used in spreadsheet applications
http://www.bom.gov.au/fwo/IDV60801/IDV60801.94863.axf

JavaScript Object Notation format (JSON) in row-major order
http://www.bom.gov.au/fwo/IDV60801/IDV60801.94863.json